Time;durP1;ratioP1;P1;durP2;ratioP2;P2;SDS_P1;SDS_P2;PMS_P1;PMS_P2;Temp;Humidity;BMP_temperature;BMP_pressure;BME280_temperature;BME280_humidity;BME280_pressure;Samples;Min_cycle;Max_cycle;Signal;HPM_P1;HPM_P2
2023/04/06 00:01:42;;;;;;;8.50;5.43;;;5.30;99.90;;;;;;5049433;28;20372;-83
2023/04/06 00:04:07;;;;;;;8.05;4.85;;;5.30;99.90;;;;;;5049587;28;20103;-83
2023/04/06 00:06:33;;;;;;;8.25;5.30;;;5.30;99.90;;;;;;5048303;28;20124;-83
2023/04/06 00:08:59;;;;;;;7.78;5.10;;;5.30;99.90;;;;;;5045570;28;20045;-83
2023/04/06 00:11:25;;;;;;;8.23;4.97;;;5.20;99.90;;;;;;5054491;28;20327;-83
2023/04/06 00:13:51;;;;;;;7.82;5.03;;;5.20;99.90;;;;;;5056597;28;20059;-83
2023/04/06 00:16:17;;;;;;;8.10;5.15;;;5.10;99.90;;;;;;5047294;28;20045;-83
2023/04/06 00:18:43;;;;;;;9.88;5.80;;;5.10;99.90;;;;;;5051548;28;20814;-83
2023/04/06 00:21:12;;;;;;;8.48;5.13;;;5.00;99.90;;;;;;5051885;28;20041;-82
2023/04/06 00:23:38;;;;;;;8.52;5.25;;;5.00;99.90;;;;;;5055699;28;20056;-83
2023/04/06 00:26:04;;;;;;;8.40;5.30;;;5.00;99.90;;;;;;5056941;28;20149;-83
2023/04/06 00:28:29;;;;;;;9.07;5.38;;;4.90;99.90;;;;;;5039437;28;20073;-83
2023/04/06 00:30:55;;;;;;;8.57;5.10;;;4.80;99.90;;;;;;5052948;28;20036;-83
2023/04/06 00:33:22;;;;;;;9.18;5.50;;;4.70;99.90;;;;;;5048413;28;20047;-83
2023/04/06 00:35:48;;;;;;;9.27;5.30;;;4.60;99.90;;;;;;5051944;28;20778;-83
2023/04/06 00:38:14;;;;;;;8.80;5.43;;;4.60;99.90;;;;;;5051243;28;20095;-83
2023/04/06 00:40:40;;;;;;;9.13;5.63;;;4.50;99.90;;;;;;5046220;28;20033;-83
2023/04/06 00:43:07;;;;;;;11.05;5.80;;;4.40;99.90;;;;;;5046530;28;20110;-83
2023/04/06 00:45:33;;;;;;;9.32;5.43;;;4.40;99.90;;;;;;5046745;28;20508;-83
2023/04/06 00:47:59;;;;;;;8.73;5.72;;;4.30;99.90;;;;;;5048885;28;20047;-83
2023/04/06 00:50:25;;;;;;;8.88;5.00;;;4.30;99.90;;;;;;5050054;28;20036;-83
2023/04/06 00:52:51;;;;;;;10.32;5.88;;;4.20;99.90;;;;;;5046801;28;20037;-83
2023/04/06 00:55:17;;;;;;;8.90;6.07;;;4.10;99.90;;;;;;5050435;28;20060;-83
2023/04/06 00:57:43;;;;;;;9.18;6.13;;;4.20;99.90;;;;;;5055682;28;20037;-83
2023/04/06 01:00:12;;;;;;;8.68;5.53;;;4.10;99.90;;;;;;5039482;28;20056;-83
2023/04/06 01:02:41;;;;;;;7.90;5.28;;;4.10;99.90;;;;;;5060545;28;20450;-83
2023/04/06 01:05:07;;;;;;;8.75;5.38;;;4.00;99.90;;;;;;5056236;28;20051;-83
2023/04/06 01:07:35;;;;;;;9.00;5.65;;;4.00;99.90;;;;;;5051365;28;20497;-83
2023/04/06 01:10:04;;;;;;;8.32;5.57;;;4.00;99.90;;;;;;5054790;28;20037;-82
2023/04/06 01:12:30;;;;;;;8.20;5.78;;;3.60;99.90;;;;;;5051499;28;20048;-82
2023/04/06 01:14:56;;;;;;;9.68;5.60;;;3.90;99.90;;;;;;5052086;28;20041;-82
2023/04/06 01:17:24;;;;;;;9.98;5.82;;;3.90;99.90;;;;;;5058405;28;20044;-83
2023/04/06 01:19:53;;;;;;;9.45;5.93;;;3.80;99.90;;;;;;5051710;28;20040;-83
2023/04/06 01:22:25;;;;;;;9.70;5.47;;;3.90;99.90;;;;;;5033363;28;20169;-81
2023/04/06 01:24:50;;;;;;;9.38;6.18;;;3.90;99.90;;;;;;5049080;28;20107;-83
2023/04/06 01:27:16;;;;;;;9.60;6.10;;;3.90;99.90;;;;;;5055698;28;20157;-83
2023/04/06 01:29:42;;;;;;;9.18;5.80;;;3.90;99.90;;;;;;5047869;28;20037;-83
2023/04/06 01:32:09;;;;;;;9.98;5.68;;;3.80;99.90;;;;;;5049876;28;20078;-83
2023/04/06 01:34:37;;;;;;;15.50;6.18;;;3.80;99.90;;;;;;5051029;28;20048;-81
2023/04/06 01:37:03;;;;;;;10.38;6.00;;;3.80;99.90;;;;;;5050897;28;21874;-84
2023/04/06 01:39:29;;;;;;;8.43;5.85;;;3.80;99.90;;;;;;5047187;28;20766;-83
2023/04/06 01:41:57;;;;;;;9.70;6.45;;;3.80;99.90;;;;;;5033557;28;20045;-83
2023/04/06 01:44:23;;;;;;;10.02;6.05;;;3.80;99.90;;;;;;5047947;28;20597;-83
2023/04/06 01:46:49;;;;;;;13.02;6.55;;;3.70;99.90;;;;;;5045415;28;20037;-83
2023/04/06 01:49:15;;;;;;;10.38;5.75;;;3.60;99.90;;;;;;5032762;28;20459;-83
2023/04/06 01:51:44;;;;;;;8.95;5.70;;;3.60;99.90;;;;;;5050273;28;20036;-83
2023/04/06 01:54:13;;;;;;;9.77;5.78;;;3.50;99.90;;;;;;5034664;28;20044;-83
2023/04/06 01:56:38;;;;;;;10.75;5.63;;;3.60;99.90;;;;;;5048538;28;20300;-83
2023/04/06 01:59:04;;;;;;;10.10;5.72;;;3.60;99.90;;;;;;5048754;28;20039;-83
2023/04/06 02:01:30;;;;;;;9.35;6.40;;;3.60;99.90;;;;;;5046191;28;20037;-83
2023/04/06 02:03:58;;;;;;;9.07;5.88;;;3.60;99.90;;;;;;5043522;28;20037;-83
2023/04/06 02:06:26;;;;;;;9.35;5.85;;;3.60;99.90;;;;;;5047079;28;20701;-83
2023/04/06 02:08:52;;;;;;;7.93;5.43;;;3.60;99.90;;;;;;5049023;28;20045;-83
2023/04/06 02:11:17;;;;;;;9.43;5.82;;;3.60;99.90;;;;;;5046619;28;20052;-83
2023/04/06 02:13:46;;;;;;;11.80;6.90;;;3.60;99.90;;;;;;5034035;28;20045;-83
2023/04/06 02:16:15;;;;;;;10.25;6.93;;;3.60;99.90;;;;;;5028236;28;20577;-83
2023/04/06 02:18:43;;;;;;;9.68;5.63;;;3.60;99.90;;;;;;5044855;28;20739;-83
2023/04/06 02:21:09;;;;;;;8.95;5.63;;;3.60;99.90;;;;;;5045241;28;20064;-83
2023/04/06 02:23:40;;;;;;;8.57;5.90;;;3.60;99.90;;;;;;5032378;28;20071;-83
2023/04/06 02:26:06;;;;;;;10.23;5.90;;;3.60;99.90;;;;;;5050651;28;20085;-83
2023/04/06 02:28:32;;;;;;;11.27;6.80;;;3.60;99.90;;;;;;5046897;28;20052;-83
2023/04/06 02:30:57;;;;;;;9.57;6.00;;;3.60;99.90;;;;;;5049603;28;20064;-83
2023/04/06 02:33:23;;;;;;;9.90;6.00;;;3.60;99.90;;;;;;5044406;28;20471;-83
2023/04/06 02:35:49;;;;;;;10.38;6.43;;;3.60;99.90;;;;;;5053103;28;20140;-83
2023/04/06 02:38:15;;;;;;;11.10;6.90;;;3.60;99.90;;;;;;5046622;28;20076;-83
2023/04/06 02:40:40;;;;;;;8.15;5.97;;;3.60;99.90;;;;;;5053975;28;20041;-83
2023/04/06 02:43:06;;;;;;;8.95;6.20;;;3.60;99.90;;;;;;5044035;28;20142;-83
2023/04/06 02:45:31;;;;;;;9.85;6.32;;;3.60;99.90;;;;;;5053560;28;20044;-83
2023/04/06 02:47:57;;;;;;;10.40;6.47;;;3.60;99.90;;;;;;5044381;28;20815;-83
2023/04/06 02:50:25;;;;;;;10.45;6.53;;;3.70;99.90;;;;;;5051950;28;20052;-83
2023/04/06 02:52:53;;;;;;;12.73;6.22;;;3.50;99.90;;;;;;5047047;28;20040;-83
2023/04/06 02:55:19;;;;;;;9.45;6.20;;;3.50;99.90;;;;;;5047961;28;20049;-83
2023/04/06 02:57:45;;;;;;;9.60;6.00;;;3.50;99.90;;;;;;5045457;28;20087;-83
2023/04/06 03:00:11;;;;;;;8.50;6.32;;;3.50;99.90;;;;;;5043641;28;20162;-83
2023/04/06 03:02:37;;;;;;;12.38;6.75;;;3.40;99.90;;;;;;5047261;28;20036;-83
2023/04/06 03:05:03;;;;;;;10.05;6.88;;;3.40;99.90;;;;;;5049541;28;20057;-83
2023/04/06 03:07:29;;;;;;;10.63;6.45;;;3.40;99.90;;;;;;5046726;28;20040;-83
2023/04/06 03:09:55;;;;;;;10.35;6.57;;;3.30;99.90;;;;;;5044472;28;20045;-83
2023/04/06 03:12:21;;;;;;;10.77;6.93;;;3.20;99.90;;;;;;5045055;28;20044;-83
2023/04/06 03:14:49;;;;;;;10.50;6.57;;;3.10;99.90;;;;;;5031869;28;20044;-83
2023/04/06 03:17:15;;;;;;;10.98;6.82;;;3.00;99.90;;;;;;5043053;28;20040;-83
2023/04/06 03:19:43;;;;;;;10.23;6.13;;;3.00;99.90;;;;;;5048789;28;20124;-83
2023/04/06 03:22:09;;;;;;;8.32;5.57;;;3.00;99.90;;;;;;5052672;28;20048;-83
2023/04/06 03:24:35;;;;;;;8.98;6.20;;;3.00;99.90;;;;;;5045905;28;20449;-83
2023/04/06 03:27:01;;;;;;;10.60;6.93;;;3.00;99.90;;;;;;5041664;28;20039;-83
2023/04/06 03:29:32;;;;;;;13.25;6.75;;;3.00;99.90;;;;;;5045489;28;20647;-83
2023/04/06 03:32:01;;;;;;;9.20;6.13;;;2.90;99.90;;;;;;5044998;28;20464;-83
2023/04/06 03:34:26;;;;;;;10.18;6.32;;;2.90;99.90;;;;;;5050470;28;20032;-83
2023/04/06 03:36:52;;;;;;;11.02;6.38;;;2.90;99.90;;;;;;5049685;28;20867;-83
2023/04/06 03:39:18;;;;;;;12.23;7.47;;;2.90;99.90;;;;;;5032015;28;20049;-83
2023/04/06 03:41:44;;;;;;;12.50;7.18;;;2.90;99.90;;;;;;5027898;28;20041;-83
2023/04/06 03:44:10;;;;;;;10.18;6.57;;;2.90;99.90;;;;;;5046138;28;20041;-83
2023/04/06 03:46:38;;;;;;;10.65;6.80;;;2.80;99.90;;;;;;5055023;28;20451;-83
2023/04/06 03:49:04;;;;;;;11.55;7.07;;;2.80;99.90;;;;;;5049671;28;20056;-83
2023/04/06 03:51:30;;;;;;;9.50;6.25;;;2.80;99.90;;;;;;5036581;28;20484;-83
2023/04/06 03:53:56;;;;;;;10.50;6.80;;;2.80;99.90;;;;;;5053335;28;20424;-83
2023/04/06 03:56:22;;;;;;;8.90;6.03;;;2.80;99.90;;;;;;5041705;28;20583;-83
2023/04/06 03:58:51;;;;;;;9.02;5.88;;;2.80;99.90;;;;;;5044759;28;20059;-83
2023/04/06 04:01:20;;;;;;;13.82;7.40;;;2.80;99.90;;;;;;5042654;28;20103;-83
2023/04/06 04:03:49;;;;;;;10.98;6.38;;;2.80;99.90;;;;;;5045080;28;20495;-83
2023/04/06 04:06:15;;;;;;;10.25;6.30;;;2.80;99.90;;;;;;5028059;28;20049;-83
2023/04/06 04:08:40;;;;;;;11.20;6.78;;;2.80;99.90;;;;;;5048210;28;20544;-83
2023/04/06 04:11:12;;;;;;;8.75;6.13;;;2.80;99.90;;;;;;5045349;28;20143;-83
2023/04/06 04:13:38;;;;;;;11.35;6.93;;;2.80;99.90;;;;;;5047650;28;20060;-83
2023/04/06 04:16:04;;;;;;;12.88;6.60;;;3.10;99.90;;;;;;5038084;28;20052;-83
2023/04/06 04:18:29;;;;;;;10.07;6.88;;;2.80;99.90;;;;;;5041677;28;20076;-82
2023/04/06 04:20:55;;;;;;;8.70;6.05;;;2.80;99.90;;;;;;5028488;28;20615;-83
2023/04/06 04:23:22;;;;;;;11.07;6.80;;;2.70;99.90;;;;;;5045485;28;20037;-83
2023/04/06 04:25:48;;;;;;;8.13;5.85;;;2.70;99.90;;;;;;5041281;28;20044;-83
2023/04/06 04:28:17;;;;;;;10.63;6.45;;;2.70;99.90;;;;;;5043094;28;20046;-83
2023/04/06 04:30:42;;;;;;;10.65;6.78;;;2.70;99.90;;;;;;5057498;28;20061;-83
2023/04/06 04:33:11;;;;;;;7.88;5.88;;;2.70;99.90;;;;;;5049660;28;20123;-83
2023/04/06 04:35:36;;;;;;;9.77;6.53;;;2.70;99.90;;;;;;5049800;28;20040;-83
2023/04/06 04:38:02;;;;;;;9.02;6.30;;;2.70;99.90;;;;;;5047802;28;20130;-82
2023/04/06 04:40:28;;;;;;;13.05;6.57;;;2.70;99.90;;;;;;5047261;28;20574;-83
2023/04/06 04:42:53;;;;;;;11.00;6.85;;;2.60;99.90;;;;;;5047641;28;20055;-83
2023/04/06 04:45:19;;;;;;;11.35;6.45;;;2.60;99.90;;;;;;5046443;28;20477;-83
2023/04/06 04:47:45;;;;;;;9.27;6.35;;;2.60;99.90;;;;;;5050728;28;20057;-83
2023/04/06 04:50:10;;;;;;;10.63;6.38;;;2.60;99.90;;;;;;5049288;28;20051;-83
2023/04/06 04:52:37;;;;;;;9.73;5.78;;;2.50;99.90;;;;;;5045948;28;20041;-83
2023/04/06 04:55:03;;;;;;;14.15;7.85;;;2.50;99.90;;;;;;5046455;28;20752;-83
2023/04/06 04:57:29;;;;;;;10.35;7.18;;;2.50;99.90;;;;;;5046769;28;20574;-83
2023/04/06 04:59:56;;;;;;;12.50;6.93;;;2.50;99.90;;;;;;5051253;28;20047;-82
2023/04/06 05:02:22;;;;;;;11.82;7.18;;;2.50;99.90;;;;;;5053625;28;20048;-83
2023/04/06 05:04:47;;;;;;;13.55;7.13;;;2.40;99.90;;;;;;5031135;28;20045;-83
2023/04/06 05:07:15;;;;;;;10.98;7.18;;;2.40;99.90;;;;;;5052418;28;20418;-82
2023/04/06 05:09:41;;;;;;;11.00;7.20;;;2.40;99.90;;;;;;5046186;28;20126;-82
2023/04/06 05:12:07;;;;;;;11.10;6.72;;;2.30;99.90;;;;;;5048587;28;20065;-83
2023/04/06 05:14:33;;;;;;;11.52;7.18;;;2.40;99.90;;;;;;5041699;28;20656;-82
2023/04/06 05:17:00;;;;;;;10.43;7.07;;;2.40;99.90;;;;;;5043272;28;20147;-82
2023/04/06 05:19:25;;;;;;;15.73;7.93;;;2.30;99.90;;;;;;5042510;28;20076;-82
2023/04/06 05:21:51;;;;;;;11.30;7.18;;;2.30;99.90;;;;;;5040952;28;20242;-83
2023/04/06 05:24:17;;;;;;;14.32;7.38;;;2.30;99.90;;;;;;5049151;28;20104;-83
2023/04/06 05:26:43;;;;;;;14.52;7.05;;;2.30;99.90;;;;;;5044006;28;20123;-83
2023/04/06 05:29:10;;;;;;;9.95;7.35;;;2.30;99.90;;;;;;5045876;28;20493;-83
2023/04/06 05:31:35;;;;;;;12.30;7.15;;;2.40;99.90;;;;;;5046698;28;20078;-83
2023/04/06 05:34:01;;;;;;;14.00;8.07;;;2.30;99.90;;;;;;5047017;28;20041;-81
2023/04/06 05:36:27;;;;;;;13.23;7.43;;;2.30;99.90;;;;;;5043460;28;20533;-82
2023/04/06 05:38:52;;;;;;;15.38;7.53;;;2.30;99.90;;;;;;5046246;28;20147;-83
2023/04/06 05:41:18;;;;;;;13.80;7.60;;;2.30;99.90;;;;;;5049180;28;20804;-83
2023/04/06 05:43:47;;;;;;;11.75;6.85;;;2.30;99.90;;;;;;5050548;28;20037;-87
2023/04/06 05:46:12;;;;;;;11.45;6.93;;;2.50;99.90;;;;;;5047915;28;20806;-86
2023/04/06 05:48:38;;;;;;;11.43;7.05;;;2.30;99.90;;;;;;5042408;28;20041;-82
2023/04/06 05:51:06;;;;;;;10.63;7.13;;;2.30;99.90;;;;;;5047590;28;20037;-83
2023/04/06 05:53:32;;;;;;;16.10;7.55;;;2.30;99.90;;;;;;5045845;28;20539;-83
2023/04/06 05:56:04;;;;;;;10.65;7.80;;;2.30;99.90;;;;;;5051440;28;20146;-82
2023/04/06 05:58:30;;;;;;;14.45;7.95;;;2.30;99.90;;;;;;5050129;28;20044;-83
2023/04/06 06:01:03;;;;;;;10.88;7.40;;;2.30;99.90;;;;;;5028679;28;20049;-83
2023/04/06 06:03:29;;;;;;;12.05;7.60;;;2.40;99.90;;;;;;5045479;28;20530;-83
2023/04/06 06:06:00;;;;;;;14.60;6.85;;;2.40;99.90;;;;;;5040513;28;20853;-83
2023/04/06 06:08:26;;;;;;;11.65;7.47;;;2.30;99.90;;;;;;5047918;28;20128;-83
2023/04/06 06:10:53;;;;;;;12.30;7.53;;;2.40;99.90;;;;;;5042022;28;20112;-83
2023/04/06 06:13:18;;;;;;;13.88;7.75;;;2.50;99.90;;;;;;5047387;28;20368;-86
2023/04/06 06:15:44;;;;;;;11.35;7.97;;;2.40;99.90;;;;;;5049147;28;20067;-85
2023/04/06 06:18:10;;;;;;;14.23;7.93;;;2.40;99.90;;;;;;5046329;28;20493;-86
2023/04/06 06:20:36;;;;;;;14.63;8.68;;;2.40;99.90;;;;;;5041364;28;20059;-84
2023/04/06 06:23:02;;;;;;;12.43;8.10;;;2.40;99.90;;;;;;5046739;28;20540;-84
2023/04/06 06:25:30;;;;;;;16.30;7.65;;;2.50;99.90;;;;;;5044038;28;20044;-83
2023/04/06 06:27:56;;;;;;;12.48;7.97;;;2.50;99.90;;;;;;5042890;28;20040;-84
2023/04/06 06:30:22;;;;;;;12.70;8.80;;;2.50;99.90;;;;;;5040864;28;20061;-84
2023/04/06 06:32:48;;;;;;;12.48;7.35;;;2.60;99.90;;;;;;5040365;28;20094;-84
2023/04/06 06:35:14;;;;;;;13.80;9.10;;;2.60;99.90;;;;;;5044102;28;20127;-83
2023/04/06 06:37:40;;;;;;;13.77;8.30;;;2.60;99.90;;;;;;5047722;28;20619;-84
2023/04/06 06:40:06;;;;;;;13.35;8.48;;;2.70;99.90;;;;;;5047277;28;20041;-83
2023/04/06 06:42:31;;;;;;;12.75;8.32;;;2.70;99.90;;;;;;5044659;28;20040;-84
2023/04/06 06:44:57;;;;;;;13.48;8.48;;;2.90;99.90;;;;;;5041893;28;20672;-83
2023/04/06 06:47:23;;;;;;;14.07;8.30;;;2.80;99.90;;;;;;5047964;28;20593;-85
2023/04/06 06:49:49;;;;;;;18.08;9.90;;;2.80;99.90;;;;;;5049495;28;20033;-83
2023/04/06 06:52:15;;;;;;;15.50;9.38;;;2.90;99.90;;;;;;5046356;28;20448;-84
2023/04/06 06:54:40;;;;;;;14.18;8.80;;;2.90;99.90;;;;;;5051516;28;20048;-85
2023/04/06 06:57:06;;;;;;;16.52;8.77;;;3.00;99.90;;;;;;5046134;28;20591;-85
2023/04/06 06:59:32;;;;;;;14.30;9.48;;;3.10;99.90;;;;;;5050528;28;20048;-85
2023/04/06 07:01:58;;;;;;;12.68;8.27;;;3.10;99.90;;;;;;5047247;28;20083;-86
2023/04/06 07:04:23;;;;;;;15.25;8.80;;;3.10;99.90;;;;;;5024409;28;20094;-84
2023/04/06 07:06:50;;;;;;;15.43;9.40;;;3.20;99.90;;;;;;5030889;28;20048;-84
2023/04/06 07:09:16;;;;;;;15.93;9.65;;;3.20;99.90;;;;;;5042865;28;20044;-84
2023/04/06 07:11:44;;;;;;;18.10;9.60;;;3.30;99.90;;;;;;5039894;28;20056;-84
2023/04/06 07:14:11;;;;;;;16.50;8.70;;;3.30;99.90;;;;;;5045642;28;20535;-84
2023/04/06 07:16:37;;;;;;;15.35;9.65;;;3.40;99.90;;;;;;5044828;28;20533;-84
2023/04/06 07:19:03;;;;;;;14.25;9.07;;;3.20;99.90;;;;;;5048112;28;20032;-85
2023/04/06 07:21:28;;;;;;;12.68;8.35;;;4.10;99.90;;;;;;5041419;28;20048;-82
2023/04/06 07:23:54;;;;;;;15.13;9.15;;;3.50;99.90;;;;;;5043859;28;20845;-85
2023/04/06 07:26:20;;;;;;;12.45;8.88;;;3.50;99.90;;;;;;5025065;28;20043;-83
2023/04/06 07:28:49;;;;;;;15.32;8.95;;;3.60;99.90;;;;;;5043223;28;20041;-83
2023/04/06 07:31:15;;;;;;;13.52;9.00;;;3.70;99.90;;;;;;5052029;28;20533;-83
2023/04/06 07:33:41;;;;;;;13.88;8.73;;;3.70;99.90;;;;;;5041540;28;20040;-84
2023/04/06 07:36:07;;;;;;;13.13;9.10;;;3.80;99.90;;;;;;5045454;28;21732;-83
2023/04/06 07:38:32;;;;;;;16.60;8.55;;;3.90;99.90;;;;;;5045951;28;20070;-82
2023/04/06 07:40:58;;;;;;;16.25;9.77;;;3.90;99.90;;;;;;5041206;28;20037;-83
2023/04/06 07:43:24;;;;;;;13.90;9.50;;;4.00;99.90;;;;;;5048447;28;20668;-82
2023/04/06 07:45:50;;;;;;;13.95;9.15;;;4.10;99.90;;;;;;5044101;28;20403;-86
2023/04/06 07:48:16;;;;;;;12.45;9.10;;;4.30;99.90;;;;;;5041517;28;20033;-83
2023/04/06 07:50:41;;;;;;;13.93;9.10;;;4.30;99.90;;;;;;5041469;28;20467;-83
2023/04/06 07:53:08;;;;;;;15.27;10.05;;;4.30;99.90;;;;;;5029512;28;20808;-83
2023/04/06 07:55:34;;;;;;;15.27;9.63;;;4.40;99.90;;;;;;5027699;28;20604;-83
2023/04/06 07:58:00;;;;;;;14.85;9.35;;;4.50;99.90;;;;;;5043429;28;20041;-83
2023/04/06 08:00:26;;;;;;;16.83;9.48;;;4.70;99.90;;;;;;5028575;28;20037;-83
2023/04/06 08:02:52;;;;;;;15.25;9.10;;;4.70;99.90;;;;;;5042100;28;20055;-82
2023/04/06 08:05:18;;;;;;;15.85;9.32;;;4.80;99.90;;;;;;5045520;28;20048;-83
2023/04/06 08:07:44;;;;;;;15.50;10.23;;;4.90;99.90;;;;;;5046051;28;20083;-83
2023/04/06 08:10:10;;;;;;;15.52;9.43;;;4.90;99.90;;;;;;5049938;28;20483;-82
2023/04/06 08:12:36;;;;;;;16.08;9.50;;;5.10;99.90;;;;;;5042463;28;20047;-83
2023/04/06 08:15:02;;;;;;;14.38;8.77;;;5.20;99.90;;;;;;5051184;28;20037;-83
2023/04/06 08:17:30;;;;;;;13.50;9.23;;;5.30;99.90;;;;;;5049610;28;20036;-81
2023/04/06 08:19:56;;;;;;;13.70;9.13;;;5.40;99.90;;;;;;5041883;28;20080;-82
2023/04/06 08:22:21;;;;;;;14.20;9.40;;;5.40;99.90;;;;;;5027134;28;20250;-82
2023/04/06 08:24:47;;;;;;;16.42;9.93;;;5.60;99.90;;;;;;5049058;28;20044;-83
2023/04/06 08:27:14;;;;;;;16.42;9.63;;;5.60;99.90;;;;;;5046693;28;20496;-84
2023/04/06 08:29:40;;;;;;;20.20;9.50;;;5.70;99.90;;;;;;5044380;28;20454;-84
2023/04/06 08:32:06;;;;;;;14.60;8.85;;;5.80;99.90;;;;;;5047229;28;20766;-83
2023/04/06 08:34:33;;;;;;;16.38;9.48;;;5.90;99.90;;;;;;5026049;28;20048;-82
2023/04/06 08:36:59;;;;;;;13.63;9.63;;;6.00;99.90;;;;;;5048232;28;20046;-83
2023/04/06 08:39:27;;;;;;;16.25;10.93;;;6.20;99.90;;;;;;5046093;28;20043;-83
2023/04/06 08:41:56;;;;;;;13.35;9.20;;;6.30;99.90;;;;;;5045497;28;20546;-83
2023/04/06 08:44:22;;;;;;;13.18;9.50;;;6.50;99.90;;;;;;5040203;28;20041;-82
2023/04/06 08:46:52;;;;;;;14.90;8.90;;;6.60;99.90;;;;;;5045686;28;20578;-85
2023/04/06 08:49:19;;;;;;;14.10;8.45;;;6.80;99.90;;;;;;5047645;28;20046;-84
2023/04/06 08:51:45;;;;;;;14.43;8.93;;;6.90;99.90;;;;;;5044314;28;20044;-86
2023/04/06 08:54:11;;;;;;;13.98;8.98;;;7.10;99.90;;;;;;5046427;28;20048;-85
2023/04/06 08:56:40;;;;;;;15.80;8.95;;;7.30;99.90;;;;;;5041713;28;20055;-84
2023/04/06 08:59:06;;;;;;;13.65;8.48;;;7.40;99.90;;;;;;5053412;28;20044;-86
2023/04/06 09:01:38;;;;;;;12.07;8.63;;;7.60;99.90;;;;;;5055552;28;20508;-84
2023/04/06 09:04:09;;;;;;;13.80;8.77;;;7.70;99.90;;;;;;5042844;28;20151;-84
2023/04/06 09:06:36;;;;;;;11.48;7.93;;;7.90;99.90;;;;;;5047110;28;20114;-83
2023/04/06 09:09:03;;;;;;;12.73;8.43;;;8.10;99.90;;;;;;5041501;28;20037;-84
2023/04/06 09:11:29;;;;;;;13.82;9.35;;;8.70;99.90;;;;;;5047569;28;20117;-84
2023/04/06 09:13:57;;;;;;;13.98;9.20;;;8.40;99.90;;;;;;5046609;28;20052;-84
2023/04/06 09:16:23;;;;;;;12.40;8.43;;;8.60;99.90;;;;;;5041475;28;20041;-84
2023/04/06 09:18:49;;;;;;;14.85;8.88;;;8.80;99.90;;;;;;5043926;28;20049;-84
2023/04/06 09:21:19;;;;;;;13.23;9.38;;;8.90;99.90;;;;;;5043291;28;20037;-84
2023/04/06 09:23:45;;;;;;;15.75;9.05;;;9.10;99.90;;;;;;5040533;28;20045;-85
2023/04/06 09:26:15;;;;;;;17.52;9.30;;;9.30;99.90;;;;;;5040765;28;20532;-85
2023/04/06 09:28:46;;;;;;;13.18;9.55;;;9.50;99.90;;;;;;5043721;28;20087;-85
2023/04/06 09:31:27;;;;;;;14.40;9.57;;;9.60;99.90;;;;;;5040929;28;20068;-86
2023/04/06 09:33:54;;;;;;;15.00;9.70;;;9.70;99.90;;;;;;5040468;28;20094;-84
2023/04/06 09:36:32;;;;;;;15.00;9.27;;;9.80;99.90;;;;;;5041411;28;20049;-83
2023/04/06 09:39:02;;;;;;;16.52;9.50;;;9.90;99.90;;;;;;5041548;28;20057;-84
2023/04/06 09:41:33;;;;;;;16.73;9.50;;;10.10;99.90;;;;;;5040876;28;20149;-83
2023/04/06 09:44:08;;;;;;;15.65;10.15;;;10.10;99.90;;;;;;5049638;28;20044;-83
2023/04/06 09:46:45;;;;;;;16.52;10.45;;;10.20;99.90;;;;;;5041373;28;20044;-82
2023/04/06 09:49:12;;;;;;;16.05;10.05;;;10.40;99.90;;;;;;5040676;28;20786;-82
2023/04/06 09:51:48;;;;;;;16.33;10.32;;;10.40;99.90;;;;;;5045414;28;20041;-82
2023/04/06 09:54:22;;;;;;;14.85;10.13;;;10.50;99.90;;;;;;5045485;28;20491;-83
2023/04/06 09:57:11;;;;;;;14.93;9.88;;;10.50;99.90;;;;;;5043972;28;20514;-83
2023/04/06 10:00:07;;;;;;;13.90;10.70;;;10.60;99.90;;;;;;5039899;28;20068;-83
2023/04/06 10:03:07;;;;;;;19.02;10.73;;;10.70;99.90;;;;;;5043379;28;20044;-84
2023/04/06 10:05:43;;;;;;;19.42;11.30;;;10.80;99.90;;;;;;5023840;28;20163;-83
2023/04/06 10:08:10;;;;;;;16.95;11.07;;;10.90;99.90;;;;;;5028636;28;20048;-83
2023/04/06 10:10:36;;;;;;;28.05;18.10;;;11.10;99.90;;;;;;5048016;28;20121;-82
2023/04/06 10:13:04;;;;;;;19.33;11.27;;;11.00;99.90;;;;;;5043755;28;20147;-89
2023/04/06 10:15:30;;;;;;;19.55;11.43;;;11.10;99.30;;;;;;5044297;28;20570;-89
2023/04/06 10:18:00;;;;;;;20.88;13.23;;;11.10;98.00;;;;;;5046117;28;20155;-90
2023/04/06 10:20:49;;;;;;;19.92;11.38;;;11.00;97.90;;;;;;5040538;28;20047;-87
2023/04/06 10:23:32;;;;;;;19.35;11.88;;;11.10;98.70;;;;;;5051843;28;20075;-88
2023/04/06 10:26:00;;;;;;;16.55;11.82;;;11.10;97.50;;;;;;5044374;28;20083;-82
2023/04/06 10:28:30;;;;;;;21.33;13.38;;;11.20;97.80;;;;;;5045610;28;20119;-81
2023/04/06 10:31:00;;;;;;;21.23;13.63;;;11.20;96.50;;;;;;5038466;28;20056;-95
2023/04/06 10:33:27;;;;;;;19.38;13.45;;;11.30;96.90;;;;;;5045273;28;20044;-90
2023/04/06 10:35:53;;;;;;;25.58;14.15;;;11.40;96.20;;;;;;5046688;28;20064;-92
2023/04/06 10:38:24;;;;;;;22.38;13.50;;;11.40;95.50;;;;;;5047442;28;20483;-88
2023/04/06 10:40:49;;;;;;;21.63;13.63;;;11.80;95.60;;;;;;5043133;28;20083;-90
2023/04/06 10:43:22;;;;;;;26.38;14.70;;;11.60;95.60;;;;;;5042567;28;20033;-91
2023/04/06 10:46:00;;;;;;;23.42;15.45;;;11.70;95.20;;;;;;5046996;28;20048;-91
2023/04/06 10:48:38;;;;;;;22.58;15.20;;;11.70;94.80;;;;;;5046103;28;20041;-90
2023/04/06 10:51:11;;;;;;;24.10;15.85;;;11.70;95.00;;;;;;5044768;28;20056;-90
2023/04/06 10:53:37;;;;;;;23.90;14.60;;;11.70;94.10;;;;;;5049082;28;20238;-91
2023/04/06 10:56:08;;;;;;;27.08;16.67;;;11.80;94.40;;;;;;5047751;28;20052;-90
2023/04/06 10:58:34;;;;;;;25.38;16.10;;;11.70;94.50;;;;;;5051477;28;20051;-91
2023/04/06 11:01:00;;;;;;;24.48;16.05;;;11.80;94.60;;;;;;5052833;28;20663;-90
2023/04/06 11:03:27;;;;;;;28.52;16.38;;;11.90;94.60;;;;;;5049573;28;20475;-90
2023/04/06 11:05:52;;;;;;;25.48;16.42;;;12.00;94.00;;;;;;5048456;28;20049;-89
2023/04/06 11:08:32;;;;;;;28.13;17.90;;;12.10;93.80;;;;;;5047460;28;20029;-88
2023/04/06 11:11:06;;;;;;;27.58;17.60;;;12.20;93.80;;;;;;5026057;28;20049;-88
2023/04/06 11:13:53;;;;;;;23.98;17.25;;;12.40;93.10;;;;;;5041841;28;20566;-88
2023/04/06 11:16:23;;;;;;;23.88;17.30;;;12.50;93.00;;;;;;5048009;28;20033;-88
2023/04/06 11:19:02;;;;;;;27.13;16.00;;;12.60;93.10;;;;;;5042318;28;20037;-88
2023/04/06 11:21:36;;;;;;;24.90;17.95;;;12.70;93.00;;;;;;5030528;28;20052;-89
2023/04/06 11:24:12;;;;;;;32.25;20.35;;;12.90;93.00;;;;;;5049960;28;20044;-88
2023/04/06 11:26:55;;;;;;;25.23;16.58;;;12.80;91.90;;;;;;5040881;28;20071;-86
2023/04/06 11:29:23;;;;;;;25.15;18.55;;;12.70;91.20;;;;;;5040498;28;20045;-87
2023/04/06 11:31:53;;;;;;;28.48;18.85;;;12.70;92.30;;;;;;5044660;28;20045;-86
2023/04/06 11:34:24;;;;;;;26.70;17.92;;;12.70;92.40;;;;;;5044060;28;20045;-88
2023/04/06 11:36:58;;;;;;;26.73;18.77;;;12.80;92.70;;;;;;5047319;28;20051;-87
2023/04/06 11:39:27;;;;;;;27.40;18.67;;;12.90;91.80;;;;;;5048489;28;20044;-87
2023/04/06 11:41:55;;;;;;;30.63;19.65;;;13.00;92.40;;;;;;5048454;28;20522;-87
2023/04/06 11:44:36;;;;;;;31.25;19.23;;;13.00;92.60;;;;;;5045522;28;20037;-87
2023/04/06 11:47:03;;;;;;;29.27;19.13;;;13.10;92.90;;;;;;5047462;28;20131;-88
2023/04/06 11:49:30;;;;;;;29.08;19.48;;;13.10;92.60;;;;;;5033394;28;20037;-88
2023/04/06 11:51:57;;;;;;;28.63;18.40;;;13.20;91.50;;;;;;5047687;28;20052;-93
2023/04/06 11:54:50;;;;;;;28.48;19.75;;;13.10;91.50;;;;;;5047701;28;20114;-91
2023/04/06 11:57:17;;;;;;;27.30;18.98;;;13.10;91.30;;;;;;5043993;28;20056;-85
2023/04/06 11:59:43;;;;;;;31.80;20.50;;;13.10;91.70;;;;;;5026051;28;20132;-85
2023/04/06 12:02:10;;;;;;;32.28;19.67;;;13.30;91.30;;;;;;5055781;28;20258;-88
2023/04/06 12:04:36;;;;;;;27.58;18.92;;;13.20;91.30;;;;;;5046966;28;20044;-87
2023/04/06 12:07:02;;;;;;;28.15;19.27;;;13.20;90.80;;;;;;5043949;28;20053;-87
2023/04/06 12:09:28;;;;;;;26.55;17.70;;;13.20;91.20;;;;;;5028774;28;20140;-89
2023/04/06 12:11:54;;;;;;;26.10;18.95;;;13.20;91.50;;;;;;5053979;28;20040;-89
2023/04/06 12:14:20;;;;;;;28.33;19.02;;;13.20;90.90;;;;;;5045938;28;20045;-89
2023/04/06 12:16:46;;;;;;;31.30;19.23;;;13.00;90.90;;;;;;5045894;28;20036;-89
2023/04/06 12:19:11;;;;;;;31.40;18.95;;;13.00;90.80;;;;;;5046192;28;20075;-87
2023/04/06 12:21:37;;;;;;;28.55;20.20;;;12.90;90.10;;;;;;5045260;28;20047;-87
2023/04/06 12:24:04;;;;;;;28.08;19.13;;;12.90;90.00;;;;;;5046130;28;20043;-88
2023/04/06 12:26:30;;;;;;;28.65;19.88;;;12.90;90.20;;;;;;5027905;28;20362;-90
2023/04/06 12:28:56;;;;;;;31.67;19.73;;;12.90;90.20;;;;;;5048807;28;20047;-90
2023/04/06 12:31:25;;;;;;;29.05;18.77;;;12.90;90.60;;;;;;5050979;28;20163;-95
2023/04/06 12:33:50;;;;;;;29.17;19.10;;;12.90;90.10;;;;;;5050320;28;20495;-92
2023/04/06 12:36:19;;;;;;;24.75;17.80;;;12.90;89.70;;;;;;5050426;28;20044;-92
2023/04/06 12:38:47;;;;;;;25.45;18.08;;;12.90;90.60;;;;;;5032053;28;20048;-94
2023/04/06 12:41:13;;;;;;;29.30;19.23;;;12.90;90.40;;;;;;5050750;28;20063;-93
2023/04/06 12:43:42;;;;;;;30.05;18.60;;;12.80;89.00;;;;;;5055856;28;20283;-94
2023/04/06 12:46:09;;;;;;;29.65;18.10;;;12.80;89.60;;;;;;5052943;28;20046;-93